sensor_id;sensor_type;location;lat;lon;timestamp;pressure;altitude;pressure_sealevel;temperature;humidity
7200;BME280;3641;49.082;8.200;2023-08-06T00:01:51;99476.50;;;16.48;83.63
7200;BME280;3641;49.082;8.200;2023-08-06T00:04:17;99474.81;;;16.18;85.29
7200;BME280;3641;49.082;8.200;2023-08-06T00:06:44;99470.47;;;15.82;89.85
7200;BME280;3641;49.082;8.200;2023-08-06T00:09:11;99464.72;;;15.83;89.15
7200;BME280;3641;49.082;8.200;2023-08-06T00:11:39;99469.13;;;15.49;91.54
7200;BME280;3641;49.082;8.200;2023-08-06T00:14:09;99470.56;;;15.51;92.16
7200;BME280;3641;49.082;8.200;2023-08-06T00:16:35;99471.50;;;15.21;92.95
7200;BME280;3641;49.082;8.200;2023-08-06T00:19:01;99473.06;;;15.29;92.88
7200;BME280;3641;49.082;8.200;2023-08-06T00:21:28;99470.06;;;15.07;92.77
7200;BME280;3641;49.082;8.200;2023-08-06T00:23:54;99470.81;;;15.14;93.77
7200;BME280;3641;49.082;8.200;2023-08-06T00:26:21;99463.97;;;15.17;92.44
7200;BME280;3641;49.082;8.200;2023-08-06T00:28:49;99462.88;;;15.65;86.75
7200;BME280;3641;49.082;8.200;2023-08-06T00:31:15;99467.59;;;15.53;90.51
7200;BME280;3641;49.082;8.200;2023-08-06T00:33:41;99459.22;;;15.83;86.65
7200;BME280;3641;49.082;8.200;2023-08-06T00:36:08;99465.88;;;15.87;87.85
7200;BME280;3641;49.082;8.200;2023-08-06T00:38:34;99454.16;;;16.04;83.72
7200;BME280;3641;49.082;8.200;2023-08-06T00:41:01;99453.94;;;15.58;88.37
7200;BME280;3641;49.082;8.200;2023-08-06T00:43:27;99456.34;;;15.42;90.59
7200;BME280;3641;49.082;8.200;2023-08-06T00:45:55;99460.38;;;15.87;85.76
7200;BME280;3641;49.082;8.200;2023-08-06T00:48:22;99462.56;;;15.50;89.14
7200;BME280;3641;49.082;8.200;2023-08-06T00:50:48;99454.53;;;15.60;88.22
7200;BME280;3641;49.082;8.200;2023-08-06T00:53:15;99455.66;;;16.11;82.16
7200;BME280;3641;49.082;8.200;2023-08-06T00:55:42;99448.44;;;15.58;89.84
7200;BME280;3641;49.082;8.200;2023-08-06T00:58:10;99440.56;;;15.26;90.70
7200;BME280;3641;49.082;8.200;2023-08-06T01:00:38;99438.16;;;15.53;90.46
7200;BME280;3641;49.082;8.200;2023-08-06T01:03:06;99434.22;;;15.37;90.19
7200;BME280;3641;49.082;8.200;2023-08-06T01:05:32;99440.06;;;15.88;85.29
7200;BME280;3641;49.082;8.200;2023-08-06T01:08:09;99430.53;;;15.32;90.25
7200;BME280;3641;49.082;8.200;2023-08-06T01:10:46;99433.72;;;15.52;90.93
7200;BME280;3641;49.082;8.200;2023-08-06T01:13:23;99431.44;;;15.73;89.50
7200;BME280;3641;49.082;8.200;2023-08-06T01:15:54;99426.16;;;15.71;88.65
7200;BME280;3641;49.082;8.200;2023-08-06T01:18:23;99421.50;;;15.84;86.50
7200;BME280;3641;49.082;8.200;2023-08-06T01:20:51;99426.69;;;15.44;90.64
7200;BME280;3641;49.082;8.200;2023-08-06T01:23:18;99424.59;;;15.87;88.26
7200;BME280;3641;49.082;8.200;2023-08-06T01:25:49;99425.38;;;15.59;89.84
7200;BME280;3641;49.082;8.200;2023-08-06T01:28:23;99419.38;;;15.62;88.99
7200;BME280;3641;49.082;8.200;2023-08-06T01:30:53;99416.63;;;15.50;89.86
7200;BME280;3641;49.082;8.200;2023-08-06T01:33:21;99406.69;;;15.49;90.42
7200;BME280;3641;49.082;8.200;2023-08-06T01:35:51;99417.81;;;15.66;89.45
7200;BME280;3641;49.082;8.200;2023-08-06T01:38:18;99422.63;;;15.59;89.34
7200;BME280;3641;49.082;8.200;2023-08-06T01:40:45;99417.44;;;15.86;86.12
7200;BME280;3641;49.082;8.200;2023-08-06T01:43:11;99412.72;;;15.46;92.71
7200;BME280;3641;49.082;8.200;2023-08-06T01:45:37;99412.22;;;15.37;94.45
7200;BME280;3641;49.082;8.200;2023-08-06T01:48:04;99411.16;;;15.38;92.32
7200;BME280;3641;49.082;8.200;2023-08-06T01:50:30;99407.75;;;15.72;88.51
7200;BME280;3641;49.082;8.200;2023-08-06T01:52:58;99406.34;;;15.57;92.00
7200;BME280;3641;49.082;8.200;2023-08-06T01:55:24;99406.47;;;15.39;93.38
7200;BME280;3641;49.082;8.200;2023-08-06T01:57:51;99408.00;;;15.58;91.67
7200;BME280;3641;49.082;8.200;2023-08-06T02:00:17;99409.00;;;15.05;96.18
7200;BME280;3641;49.082;8.200;2023-08-06T02:02:44;99412.34;;;14.95;97.62
7200;BME280;3641;49.082;8.200;2023-08-06T02:05:10;99415.69;;;15.21;96.22
7200;BME280;3641;49.082;8.200;2023-08-06T02:07:37;99412.81;;;14.92;97.07
7200;BME280;3641;49.082;8.200;2023-08-06T02:10:05;99412.84;;;15.16;95.31
7200;BME280;3641;49.082;8.200;2023-08-06T02:12:32;99406.25;;;15.05;96.91
7200;BME280;3641;49.082;8.200;2023-08-06T02:14:58;99411.25;;;15.43;94.17
7200;BME280;3641;49.082;8.200;2023-08-06T02:17:25;99408.28;;;15.21;93.37
7200;BME280;3641;49.082;8.200;2023-08-06T02:19:51;99403.97;;;15.37;91.46
7200;BME280;3641;49.082;8.200;2023-08-06T02:22:18;99394.06;;;15.13;96.53
7200;BME280;3641;49.082;8.200;2023-08-06T02:24:44;99395.59;;;15.08;96.87
7200;BME280;3641;49.082;8.200;2023-08-06T02:27:12;99387.56;;;14.71;98.68
7200;BME280;3641;49.082;8.200;2023-08-06T02:29:40;99391.75;;;14.74;99.84
7200;BME280;3641;49.082;8.200;2023-08-06T02:32:07;99386.97;;;14.69;98.96
7200;BME280;3641;49.082;8.200;2023-08-06T02:34:33;99390.44;;;14.65;99.35
7200;BME280;3641;49.082;8.200;2023-08-06T02:36:59;99390.22;;;14.78;99.43
7200;BME280;3641;49.082;8.200;2023-08-06T02:39:26;99388.16;;;14.74;99.34
7200;BME280;3641;49.082;8.200;2023-08-06T02:41:52;99382.19;;;14.77;99.17
7200;BME280;3641;49.082;8.200;2023-08-06T02:44:20;99385.09;;;15.17;95.40
7200;BME280;3641;49.082;8.200;2023-08-06T02:46:46;99384.00;;;14.83;98.36
7200;BME280;3641;49.082;8.200;2023-08-06T02:49:13;99390.94;;;14.85;97.69
7200;BME280;3641;49.082;8.200;2023-08-06T02:51:39;99382.44;;;14.87;96.45
7200;BME280;3641;49.082;8.200;2023-08-06T02:54:06;99383.38;;;14.69;98.12
7200;BME280;3641;49.082;8.200;2023-08-06T02:56:32;99385.31;;;14.80;96.11
7200;BME280;3641;49.082;8.200;2023-08-06T02:58:59;99382.97;;;14.53;96.87
7200;BME280;3641;49.082;8.200;2023-08-06T03:01:26;99380.53;;;14.87;94.62
7200;BME280;3641;49.082;8.200;2023-08-06T03:03:53;99379.81;;;14.80;94.75
7200;BME280;3641;49.082;8.200;2023-08-06T03:06:20;99383.09;;;14.59;95.97
7200;BME280;3641;49.082;8.200;2023-08-06T03:08:46;99381.88;;;14.43;96.83
7200;BME280;3641;49.082;8.200;2023-08-06T03:11:13;99379.00;;;14.38;95.68
7200;BME280;3641;49.082;8.200;2023-08-06T03:13:39;99376.06;;;14.21;95.91
7200;BME280;3641;49.082;8.200;2023-08-06T03:16:05;99377.41;;;14.72;92.65
7200;BME280;3641;49.082;8.200;2023-08-06T03:18:33;99369.72;;;14.50;94.48
7200;BME280;3641;49.082;8.200;2023-08-06T03:21:00;99359.34;;;14.64;94.18
7200;BME280;3641;49.082;8.200;2023-08-06T03:23:26;99376.69;;;14.65;93.52
7200;BME280;3641;49.082;8.200;2023-08-06T03:25:53;99369.31;;;14.35;95.81
7200;BME280;3641;49.082;8.200;2023-08-06T03:28:19;99365.34;;;14.73;93.62
7200;BME280;3641;49.082;8.200;2023-08-06T03:30:45;99371.75;;;14.25;96.13
7200;BME280;3641;49.082;8.200;2023-08-06T03:33:12;99385.44;;;14.13;96.80
7200;BME280;3641;49.082;8.200;2023-08-06T03:35:40;99372.41;;;14.39;94.51
7200;BME280;3641;49.082;8.200;2023-08-06T03:38:06;99376.06;;;14.21;96.34
7200;BME280;3641;49.082;8.200;2023-08-06T03:40:34;99376.66;;;14.23;96.54
7200;BME280;3641;49.082;8.200;2023-08-06T03:43:01;99382.97;;;14.53;94.25
7200;BME280;3641;49.082;8.200;2023-08-06T03:45:27;99377.91;;;14.39;94.95
7200;BME280;3641;49.082;8.200;2023-08-06T03:47:53;99375.00;;;14.22;96.89
7200;BME280;3641;49.082;8.200;2023-08-06T03:50:20;99371.97;;;14.11;96.66
7200;BME280;3641;49.082;8.200;2023-08-06T03:52:48;99366.81;;;14.03;97.89
7200;BME280;3641;49.082;8.200;2023-08-06T03:55:15;99370.09;;;14.24;96.63
7200;BME280;3641;49.082;8.200;2023-08-06T03:57:41;99368.78;;;13.96;96.97
7200;BME280;3641;49.082;8.200;2023-08-06T04:00:08;99360.19;;;13.92;97.53
7200;BME280;3641;49.082;8.200;2023-08-06T04:02:35;99357.75;;;14.03;97.68
7200;BME280;3641;49.082;8.200;2023-08-06T04:05:01;99370.09;;;14.24;95.68
7200;BME280;3641;49.082;8.200;2023-08-06T04:07:28;99367.78;;;14.09;97.47
7200;BME280;3641;49.082;8.200;2023-08-06T04:09:57;99366.44;;;13.99;97.57
7200;BME280;3641;49.082;8.200;2023-08-06T04:12:24;99368.56;;;13.97;97.14
7200;BME280;3641;49.082;8.200;2023-08-06T04:14:51;99377.06;;;14.38;94.87
7200;BME280;3641;49.082;8.200;2023-08-06T04:17:18;99381.75;;;14.38;94.73
7200;BME280;3641;49.082;8.200;2023-08-06T04:19:47;99378.91;;;14.14;96.45
7200;BME280;3641;49.082;8.200;2023-08-06T04:22:13;99379.94;;;14.01;96.93
7200;BME280;3641;49.082;8.200;2023-08-06T04:24:40;99382.34;;;14.09;96.61
7200;BME280;3641;49.082;8.200;2023-08-06T04:27:08;99375.75;;;14.10;96.86
7200;BME280;3641;49.082;8.200;2023-08-06T04:29:35;99382.50;;;14.26;95.07
7200;BME280;3641;49.082;8.200;2023-08-06T04:32:01;99386.66;;;14.59;91.97
7200;BME280;3641;49.082;8.200;2023-08-06T04:34:28;99385.25;;;13.96;96.62
7200;BME280;3641;49.082;8.200;2023-08-06T04:36:54;99378.59;;;14.04;96.50
7200;BME280;3641;49.082;8.200;2023-08-06T04:39:21;99374.50;;;14.25;95.36
7200;BME280;3641;49.082;8.200;2023-08-06T04:41:47;99377.00;;;14.14;95.78
7200;BME280;3641;49.082;8.200;2023-08-06T04:44:15;99377.78;;;14.33;94.88
7200;BME280;3641;49.082;8.200;2023-08-06T04:46:42;99375.00;;;14.22;94.95
7200;BME280;3641;49.082;8.200;2023-08-06T04:49:08;99372.75;;;14.30;94.14
7200;BME280;3641;49.082;8.200;2023-08-06T04:51:34;99371.72;;;14.13;96.13
7200;BME280;3641;49.082;8.200;2023-08-06T04:54:01;99374.50;;;14.25;95.76
7200;BME280;3641;49.082;8.200;2023-08-06T04:56:27;99377.94;;;14.50;93.63
7200;BME280;3641;49.082;8.200;2023-08-06T04:58:54;99376.25;;;14.38;94.23
7200;BME280;3641;49.082;8.200;2023-08-06T05:01:22;99378.31;;;14.54;92.17
7200;BME280;3641;49.082;8.200;2023-08-06T05:03:48;99379.13;;;14.54;92.56
7200;BME280;3641;49.082;8.200;2023-08-06T05:06:15;99380.88;;;14.37;93.39
7200;BME280;3641;49.082;8.200;2023-08-06T05:08:41;99387.97;;;14.14;95.38
7200;BME280;3641;49.082;8.200;2023-08-06T05:11:08;99394.09;;;13.98;96.45
7200;BME280;3641;49.082;8.200;2023-08-06T05:13:35;99384.28;;;14.51;92.11
7200;BME280;3641;49.082;8.200;2023-08-06T05:16:01;99391.25;;;14.23;94.39
7200;BME280;3641;49.082;8.200;2023-08-06T05:18:29;99386.22;;;14.20;96.02
7200;BME280;3641;49.082;8.200;2023-08-06T05:20:56;99388.56;;;14.16;94.69
7200;BME280;3641;49.082;8.200;2023-08-06T05:23:22;99393.50;;;14.26;95.48
7200;BME280;3641;49.082;8.200;2023-08-06T05:25:48;99399.72;;;14.03;97.98
7200;BME280;3641;49.082;8.200;2023-08-06T05:28:15;99394.50;;;14.13;97.96
7200;BME280;3641;49.082;8.200;2023-08-06T05:30:41;99398.97;;;13.96;98.04
7200;BME280;3641;49.082;8.200;2023-08-06T05:33:08;99402.66;;;13.90;98.57
7200;BME280;3641;49.082;8.200;2023-08-06T05:35:36;99404.00;;;13.99;99.36
7200;BME280;3641;49.082;8.200;2023-08-06T05:38:02;99407.16;;;13.84;99.38
7200;BME280;3641;49.082;8.200;2023-08-06T05:40:28;99401.44;;;13.86;98.74
7200;BME280;3641;49.082;8.200;2023-08-06T05:42:55;99400.19;;;13.81;100.00
7200;BME280;3641;49.082;8.200;2023-08-06T05:45:21;99405.09;;;13.98;98.57
7200;BME280;3641;49.082;8.200;2023-08-06T05:47:48;99401.56;;;14.09;98.44
7200;BME280;3641;49.082;8.200;2023-08-06T05:50:15;99404.63;;;13.83;99.48
7200;BME280;3641;49.082;8.200;2023-08-06T05:52:42;99398.84;;;14.21;96.93
7200;BME280;3641;49.082;8.200;2023-08-06T05:55:09;99402.44;;;13.73;100.00
7200;BME280;3641;49.082;8.200;2023-08-06T05:57:35;99405.00;;;13.86;99.95
7200;BME280;3641;49.082;8.200;2023-08-06T06:00:02;99393.88;;;13.99;99.23
7200;BME280;3641;49.082;8.200;2023-08-06T06:02:31;99391.59;;;14.27;97.50
7200;BME280;3641;49.082;8.200;2023-08-06T06:04:58;99390.34;;;14.11;97.16
7200;BME280;3641;49.082;8.200;2023-08-06T06:07:24;99397.22;;;14.02;99.01
7200;BME280;3641;49.082;8.200;2023-08-06T06:09:52;99387.81;;;14.40;96.81
7200;BME280;3641;49.082;8.200;2023-08-06T06:12:19;99394.25;;;14.03;98.10
7200;BME280;3641;49.082;8.200;2023-08-06T06:14:47;99399.81;;;13.96;98.56
7200;BME280;3641;49.082;8.200;2023-08-06T06:17:14;99407.78;;;14.16;98.17
7200;BME280;3641;49.082;8.200;2023-08-06T06:19:40;99412.63;;;13.84;100.00
7200;BME280;3641;49.082;8.200;2023-08-06T06:22:06;99410.81;;;13.78;100.00
7200;BME280;3641;49.082;8.200;2023-08-06T06:24:33;99414.59;;;13.95;99.87
7200;BME280;3641;49.082;8.200;2023-08-06T06:27:01;99422.59;;;13.97;99.86
7200;BME280;3641;49.082;8.200;2023-08-06T06:29:28;99419.50;;;13.93;99.50
7200;BME280;3641;49.082;8.200;2023-08-06T06:31:54;99412.31;;;14.11;98.80
7200;BME280;3641;49.082;8.200;2023-08-06T06:34:21;99415.88;;;14.11;98.95
7200;BME280;3641;49.082;8.200;2023-08-06T06:36:48;99418.94;;;14.33;97.90
7200;BME280;3641;49.082;8.200;2023-08-06T06:39:15;99418.72;;;14.35;97.45
7200;BME280;3641;49.082;8.200;2023-08-06T06:41:42;99415.66;;;13.94;98.99
7200;BME280;3641;49.082;8.200;2023-08-06T06:44:10;99416.06;;;14.28;98.30
7200;BME280;3641;49.082;8.200;2023-08-06T06:46:37;99415.94;;;14.23;99.00
7200;BME280;3641;49.082;8.200;2023-08-06T06:49:03;99415.16;;;14.34;96.94
7200;BME280;3641;49.082;8.200;2023-08-06T06:51:30;99433.00;;;14.25;97.20
7200;BME280;3641;49.082;8.200;2023-08-06T06:53:57;99411.94;;;14.38;97.68
7200;BME280;3641;49.082;8.200;2023-08-06T06:56:23;99413.72;;;14.44;97.39
7200;BME280;3641;49.082;8.200;2023-08-06T06:58:50;99422.28;;;14.35;98.15
7200;BME280;3641;49.082;8.200;2023-08-06T07:01:18;99426.19;;;14.58;96.74
7200;BME280;3641;49.082;8.200;2023-08-06T07:03:44;99431.31;;;14.24;98.32
7200;BME280;3641;49.082;8.200;2023-08-06T07:06:13;99420.41;;;14.36;98.36
7200;BME280;3641;49.082;8.200;2023-08-06T07:08:40;99417.94;;;14.58;96.50
7200;BME280;3641;49.082;8.200;2023-08-06T07:11:07;99431.09;;;14.26;97.85
7200;BME280;3641;49.082;8.200;2023-08-06T07:13:34;99428.81;;;14.53;96.85
7200;BME280;3641;49.082;8.200;2023-08-06T07:16:00;99422.53;;;14.64;96.18
7200;BME280;3641;49.082;8.200;2023-08-06T07:18:28;99423.84;;;14.62;95.93
7200;BME280;3641;49.082;8.200;2023-08-06T07:20:55;99424.53;;;14.57;96.26
7200;BME280;3641;49.082;8.200;2023-08-06T07:23:23;99427.69;;;14.42;97.18
7200;BME280;3641;49.082;8.200;2023-08-06T07:25:50;99429.03;;;14.82;95.23
7200;BME280;3641;49.082;8.200;2023-08-06T07:28:16;99435.84;;;14.79;95.53
7200;BME280;3641;49.082;8.200;2023-08-06T07:30:44;99435.44;;;14.64;96.00
7200;BME280;3641;49.082;8.200;2023-08-06T07:33:11;99440.25;;;14.50;97.42
7200;BME280;3641;49.082;8.200;2023-08-06T07:35:38;99441.47;;;14.54;96.88
7200;BME280;3641;49.082;8.200;2023-08-06T07:38:05;99444.91;;;14.80;95.39
7200;BME280;3641;49.082;8.200;2023-08-06T07:40:31;99445.50;;;14.82;96.09
7200;BME280;3641;49.082;8.200;2023-08-06T07:42:58;99440.00;;;14.82;96.33
7200;BME280;3641;49.082;8.200;2023-08-06T07:45:25;99448.00;;;14.71;97.14
7200;BME280;3641;49.082;8.200;2023-08-06T07:47:52;99448.66;;;14.85;97.06
7200;BME280;3641;49.082;8.200;2023-08-06T07:50:18;99456.50;;;14.82;99.73
7200;BME280;3641;49.082;8.200;2023-08-06T07:52:46;99454.63;;;15.06;99.07
7200;BME280;3641;49.082;8.200;2023-08-06T07:55:13;99452.75;;;15.18;96.67
7200;BME280;3641;49.082;8.200;2023-08-06T07:57:39;99452.81;;;14.76;100.00
7200;BME280;3641;49.082;8.200;2023-08-06T08:00:09;99457.66;;;14.74;100.00
7200;BME280;3641;49.082;8.200;2023-08-06T08:02:36;99455.31;;;14.47;100.00
7200;BME280;3641;49.082;8.200;2023-08-06T08:05:03;99451.31;;;14.31;100.00
7200;BME280;3641;49.082;8.200;2023-08-06T08:07:29;99451.13;;;14.57;100.00
7200;BME280;3641;49.082;8.200;2023-08-06T08:09:57;99450.31;;;14.26;100.00
7200;BME280;3641;49.082;8.200;2023-08-06T08:12:24;99451.88;;;14.03;100.00
7200;BME280;3641;49.082;8.200;2023-08-06T08:14:50;99449.81;;;13.98;100.00
7200;BME280;3641;49.082;8.200;2023-08-06T08:17:17;99448.59;;;13.94;100.00
7200;BME280;3641;49.082;8.200;2023-08-06T08:19:43;99445.31;;;14.04;100.00
7200;BME280;3641;49.082;8.200;2023-08-06T08:22:09;99436.09;;;13.98;100.00
7200;BME280;3641;49.082;8.200;2023-08-06T08:24:36;99437.94;;;14.35;100.00
7200;BME280;3641;49.082;8.200;2023-08-06T08:27:04;99440.19;;;14.08;100.00
7200;BME280;3641;49.082;8.200;2023-08-06T08:29:31;99445.75;;;14.20;100.00
7200;BME280;3641;49.082;8.200;2023-08-06T08:31:57;99445.13;;;14.36;100.00
7200;BME280;3641;49.082;8.200;2023-08-06T08:34:24;99429.00;;;14.40;100.00
7200;BME280;3641;49.082;8.200;2023-08-06T08:36:50;99443.19;;;14.37;100.00
7200;BME280;3641;49.082;8.200;2023-08-06T08:39:17;99444.50;;;14.64;100.00
7200;BME280;3641;49.082;8.200;2023-08-06T08:41:43;99448.59;;;14.74;100.00
7200;BME280;3641;49.082;8.200;2023-08-06T08:44:13;99451.63;;;14.96;100.00
7200;BME280;3641;49.082;8.200;2023-08-06T08:46:43;99453.56;;;15.07;100.00
7200;BME280;3641;49.082;8.200;2023-08-06T08:49:10;99449.13;;;15.06;100.00
7200;BME280;3641;49.082;8.200;2023-08-06T08:51:37;99464.44;;;15.14;100.00
7200;BME280;3641;49.082;8.200;2023-08-06T08:54:04;99455.91;;;14.92;100.00
7200;BME280;3641;49.082;8.200;2023-08-06T08:56:31;99455.91;;;14.92;100.00
7200;BME280;3641;49.082;8.200;2023-08-06T08:58:58;99452.91;;;14.69;100.00
7200;BME280;3641;49.082;8.200;2023-08-06T09:01:26;99458.72;;;14.61;100.00
7200;BME280;3641;49.082;8.200;2023-08-06T09:03:54;99457.78;;;14.67;100.00
7200;BME280;3641;49.082;8.200;2023-08-06T09:06:23;99459.19;;;15.00;100.00
7200;BME280;3641;49.082;8.200;2023-08-06T09:08:56;99460.97;;;15.06;100.00
7200;BME280;3641;49.082;8.200;2023-08-06T09:11:27;99468.75;;;15.10;100.00
7200;BME280;3641;49.082;8.200;2023-08-06T09:13:54;99461.09;;;15.00;100.00
7200;BME280;3641;49.082;8.200;2023-08-06T09:16:22;99466.09;;;15.03;100.00
7200;BME280;3641;49.082;8.200;2023-08-06T09:18:50;99470.66;;;15.09;100.00
7200;BME280;3641;49.082;8.200;2023-08-06T09:21:16;99464.91;;;14.99;100.00
7200;BME280;3641;49.082;8.200;2023-08-06T09:23:43;99467.19;;;15.14;100.00
7200;BME280;3641;49.082;8.200;2023-08-06T09:26:11;99456.88;;;14.85;100.00
7200;BME280;3641;49.082;8.200;2023-08-06T09:28:38;99460.69;;;14.84;100.00
7200;BME280;3641;49.082;8.200;2023-08-06T09:31:07;99471.63;;;14.73;100.00
7200;BME280;3641;49.082;8.200;2023-08-06T09:33:36;99473.72;;;14.89;100.00
7200;BME280;3641;49.082;8.200;2023-08-06T09:36:08;99469.59;;;15.10;100.00
7200;BME280;3641;49.082;8.200;2023-08-06T09:38:38;99473.50;;;14.91;100.00
7200;BME280;3641;49.082;8.200;2023-08-06T09:41:05;99485.78;;;14.88;100.00
7200;BME280;3641;49.082;8.200;2023-08-06T09:43:39;99490.22;;;14.89;100.00
7200;BME280;3641;49.082;8.200;2023-08-06T09:46:10;99490.00;;;15.02;99.23
7200;BME280;3641;49.082;8.200;2023-08-06T09:48:38;99490.53;;;15.23;97.18
7200;BME280;3641;49.082;8.200;2023-08-06T09:51:07;99491.00;;;15.08;96.95
7200;BME280;3641;49.082;8.200;2023-08-06T09:53:36;99495.38;;;15.09;96.83
7200;BME280;3641;49.082;8.200;2023-08-06T09:56:03;99506.97;;;14.99;96.37
7200;BME280;3641;49.082;8.200;2023-08-06T09:58:31;99509.06;;;15.16;96.22
7200;BME280;3641;49.082;8.200;2023-08-06T10:00:58;99503.38;;;14.99;97.03
7200;BME280;3641;49.082;8.200;2023-08-06T10:03:25;99507.78;;;14.88;98.91
7200;BME280;3641;49.082;8.200;2023-08-06T10:05:52;99505.38;;;14.92;97.27
7200;BME280;3641;49.082;8.200;2023-08-06T10:08:20;99521.97;;;14.85;97.07
7200;BME280;3641;49.082;8.200;2023-08-06T10:10:47;99536.66;;;15.21;97.31
7200;BME280;3641;49.082;8.200;2023-08-06T10:13:14;99523.84;;;15.15;97.73
7200;BME280;3641;49.082;8.200;2023-08-06T10:15:41;99535.53;;;14.98;97.87
7200;BME280;3641;49.082;8.200;2023-08-06T10:18:08;99533.63;;;14.99;98.50
7200;BME280;3641;49.082;8.200;2023-08-06T10:20:35;99535.59;;;14.80;98.63
7200;BME280;3641;49.082;8.200;2023-08-06T10:23:03;99542.13;;;15.09;97.19
7200;BME280;3641;49.082;8.200;2023-08-06T10:25:32;99536.03;;;15.19;97.54
7200;BME280;3641;49.082;8.200;2023-08-06T10:28:00;99534.75;;;15.21;96.23
7200;BME280;3641;49.082;8.200;2023-08-06T10:30:28;99551.69;;;15.06;96.70
7200;BME280;3641;49.082;8.200;2023-08-06T10:32:56;99552.41;;;15.14;96.09
7200;BME280;3641;49.082;8.200;2023-08-06T10:35:30;99558.84;;;15.07;94.12
7200;BME280;3641;49.082;8.200;2023-08-06T10:38:03;99547.44;;;15.22;94.30
7200;BME280;3641;49.082;8.200;2023-08-06T10:40:32;99551.69;;;15.06;94.29
7200;BME280;3641;49.082;8.200;2023-08-06T10:42:59;99566.84;;;15.09;92.91
7200;BME280;3641;49.082;8.200;2023-08-06T10:45:26;99565.91;;;15.03;94.26
7200;BME280;3641;49.082;8.200;2023-08-06T10:47:54;99571.53;;;15.08;94.75
7200;BME280;3641;49.082;8.200;2023-08-06T10:50:28;99575.63;;;15.30;95.21
7200;BME280;3641;49.082;8.200;2023-08-06T10:52:55;99586.41;;;14.89;93.75
7200;BME280;3641;49.082;8.200;2023-08-06T10:55:25;99588.78;;;14.85;96.06
7200;BME280;3641;49.082;8.200;2023-08-06T10:57:53;99581.59;;;14.84;98.09
7200;BME280;3641;49.082;8.200;2023-08-06T11:00:21;99597.19;;;15.02;96.00
7200;BME280;3641;49.082;8.200;2023-08-06T11:02:48;99587.66;;;14.75;96.90
7200;BME280;3641;49.082;8.200;2023-08-06T11:05:15;99597.19;;;14.72;96.53
7200;BME280;3641;49.082;8.200;2023-08-06T11:07:42;99604.13;;;14.75;96.13
7200;BME280;3641;49.082;8.200;2023-08-06T11:10:09;99609.09;;;14.66;94.88
7200;BME280;3641;49.082;8.200;2023-08-06T11:12:36;99611.50;;;14.93;96.53
7200;BME280;3641;49.082;8.200;2023-08-06T11:15:05;99617.31;;;14.84;93.94
7200;BME280;3641;49.082;8.200;2023-08-06T11:17:33;99623.72;;;14.97;91.91
7200;BME280;3641;49.082;8.200;2023-08-06T11:19:59;99627.56;;;15.07;92.30
7200;BME280;3641;49.082;8.200;2023-08-06T11:22:26;99632.47;;;15.05;91.97
7200;BME280;3641;49.082;8.200;2023-08-06T11:24:53;99636.78;;;15.01;90.54
7200;BME280;3641;49.082;8.200;2023-08-06T11:27:20;99637.06;;;15.23;90.32
7200;BME280;3641;49.082;8.200;2023-08-06T11:29:46;99638.75;;;15.24;89.16
7200;BME280;3641;49.082;8.200;2023-08-06T11:32:14;99633.03;;;15.26;90.40
7200;BME280;3641;49.082;8.200;2023-08-06T11:34:40;99642.53;;;15.12;86.88
7200;BME280;3641;49.082;8.200;2023-08-06T11:37:07;99642.56;;;15.23;87.38
7200;BME280;3641;49.082;8.200;2023-08-06T11:39:34;99639.00;;;15.23;86.86
7200;BME280;3641;49.082;8.200;2023-08-06T11:42:02;99639.75;;;15.30;87.89
7200;BME280;3641;49.082;8.200;2023-08-06T11:44:30;99642.84;;;15.34;86.54
7200;BME280;3641;49.082;8.200;2023-08-06T11:46:59;99649.63;;;15.19;86.95
7200;BME280;3641;49.082;8.200;2023-08-06T11:49:44;99648.75;;;15.19;86.52
7200;BME280;3641;49.082;8.200;2023-08-06T11:52:15;99654.97;;;15.44;85.85
7200;BME280;3641;49.082;8.200;2023-08-06T11:54:44;99656.16;;;15.37;84.34
7200;BME280;3641;49.082;8.200;2023-08-06T11:57:10;99661.88;;;15.35;85.81
7200;BME280;3641;49.082;8.200;2023-08-06T11:59:37;99656.38;;;15.35;85.28
7200;BME280;3641;49.082;8.200;2023-08-06T12:02:05;99671.97;;;15.23;85.70
7200;BME280;3641;49.082;8.200;2023-08-06T12:04:32;99669.13;;;15.30;84.76
7200;BME280;3641;49.082;8.200;2023-08-06T12:07:06;99660.56;;;15.38;83.90
7200;BME280;3641;49.082;8.200;2023-08-06T12:09:33;99668.81;;;15.38;84.51
7200;BME280;3641;49.082;8.200;2023-08-06T12:12:01;99666.06;;;15.38;84.42
7200;BME280;3641;49.082;8.200;2023-08-06T12:14:28;99662.81;;;15.29;83.40
7200;BME280;3641;49.082;8.200;2023-08-06T12:16:54;99655.84;;;15.26;83.74
7200;BME280;3641;49.082;8.200;2023-08-06T12:19:21;99650.00;;;15.35;84.12
7200;BME280;3641;49.082;8.200;2023-08-06T12:21:48;99668.19;;;15.24;83.21
7200;BME280;3641;49.082;8.200;2023-08-06T12:24:16;99677.44;;;15.41;83.14
7200;BME280;3641;49.082;8.200;2023-08-06T12:26:42;99681.44;;;15.57;82.90
7200;BME280;3641;49.082;8.200;2023-08-06T12:29:09;99684.00;;;15.40;82.62
7200;BME280;3641;49.082;8.200;2023-08-06T12:31:35;99691.47;;;15.52;82.39
7200;BME280;3641;49.082;8.200;2023-08-06T12:34:02;99699.69;;;15.40;82.51
7200;BME280;3641;49.082;8.200;2023-08-06T12:36:28;99697.16;;;15.38;81.87
7200;BME280;3641;49.082;8.200;2023-08-06T12:38:55;99702.31;;;15.47;81.95
7200;BME280;3641;49.082;8.200;2023-08-06T12:41:23;99708.09;;;15.57;84.15
7200;BME280;3641;49.082;8.200;2023-08-06T12:43:49;99700.78;;;15.20;88.65
7200;BME280;3641;49.082;8.200;2023-08-06T12:46:16;99711.47;;;15.29;89.54
7200;BME280;3641;49.082;8.200;2023-08-06T12:48:42;99712.31;;;15.11;91.06
7200;BME280;3641;49.082;8.200;2023-08-06T12:51:09;99707.50;;;15.24;92.45
7200;BME280;3641;49.082;8.200;2023-08-06T12:53:35;99705.34;;;15.26;91.16
7200;BME280;3641;49.082;8.200;2023-08-06T12:56:02;99701.06;;;15.31;89.62
7200;BME280;3641;49.082;8.200;2023-08-06T12:58:31;99703.63;;;15.44;89.22
7200;BME280;3641;49.082;8.200;2023-08-06T13:00:57;99706.59;;;15.42;88.96
7200;BME280;3641;49.082;8.200;2023-08-06T13:03:24;99710.13;;;15.50;89.25
7200;BME280;3641;49.082;8.200;2023-08-06T13:05:50;99716.13;;;15.28;88.72
7200;BME280;3641;49.082;8.200;2023-08-06T13:08:17;99711.03;;;15.43;86.60
7200;BME280;3641;49.082;8.200;2023-08-06T13:10:43;99715.06;;;15.59;87.92
7200;BME280;3641;49.082;8.200;2023-08-06T13:13:10;99720.78;;;15.58;88.12
7200;BME280;3641;49.082;8.200;2023-08-06T13:15:38;99728.78;;;15.78;87.01
7200;BME280;3641;49.082;8.200;2023-08-06T13:18:04;99732.22;;;15.73;85.04
7200;BME280;3641;49.082;8.200;2023-08-06T13:20:30;99720.19;;;15.86;85.17